Terminal Aerodrome Forecast
Issued by NWS

Current Version | Previous Version | Text Only | Print | Product List | Glossary On
Versions: 1 2 3 4 5 6 7 8 9 10 11 12 13 14 15
175
FTUS41 KILN 101136
TAFLCK
TAF
KLCK 101136Z 1012/1112 25005KT P6SM OVC040
     FM101500 25009KT P6SM SCT035 BKN080
     FM110000 14003KT P6SM VCSH BKN060
      AMD NOT SKED=

USA.gov is the U.S. government's official web portal to all federal, state and local government web resources and services.